createdAt,value
2023-05-06T00:01:32.920Z,11.55
2023-05-06T00:04:18.577Z,11.45
2023-05-06T00:07:03.871Z,11.05
2023-05-06T00:09:49.604Z,11.37
2023-05-06T00:12:38.089Z,11.14
2023-05-06T00:15:23.214Z,11.31
2023-05-06T00:18:08.552Z,11.34
2023-05-06T00:20:54.040Z,11.36
2023-05-06T00:23:39.460Z,11.39
2023-05-06T00:26:25.685Z,11.37
2023-05-06T00:29:12.089Z,11.24
2023-05-06T00:31:58.542Z,11.28
2023-05-06T00:34:44.283Z,11.31
2023-05-06T00:37:29.961Z,11.32
2023-05-06T00:40:15.267Z,11.26
2023-05-06T00:43:00.357Z,11.12
2023-05-06T00:45:46.053Z,11.09
2023-05-06T00:48:31.637Z,11.06
2023-05-06T00:51:17.610Z,11.08
2023-05-06T00:54:02.966Z,10.96
2023-05-06T00:56:48.562Z,10.87
2023-05-06T00:59:33.828Z,10.70
2023-05-06T01:02:19.110Z,10.89
2023-05-06T01:05:04.849Z,10.95
2023-05-06T01:08:32.445Z,10.88
2023-05-06T01:11:33.980Z,10.70
2023-05-06T01:14:47.538Z,10.53
2023-05-06T01:17:35.830Z,10.44
2023-05-06T01:20:21.968Z,10.40
2023-05-06T01:23:14.489Z,10.06
2023-05-06T01:25:59.854Z,10.26
2023-05-06T01:28:45.059Z,10.24
2023-05-06T01:31:39.939Z,10.07
2023-05-06T01:34:34.136Z,9.93
2023-05-06T01:37:30.345Z,10.03
2023-05-06T01:40:17.698Z,10.07
2023-05-06T01:43:05.655Z,9.79
2023-05-06T01:45:54.030Z,10.03
2023-05-06T01:48:39.850Z,10.08
2023-05-06T01:51:25.186Z,10.18
2023-05-06T01:54:11.134Z,10.23
2023-05-06T01:56:57.410Z,10.35
2023-05-06T01:59:42.952Z,10.43
2023-05-06T02:02:28.579Z,10.23
2023-05-06T02:05:13.996Z,10.52
2023-05-06T02:08:03.746Z,10.48
2023-05-06T02:10:49.055Z,10.39
2023-05-06T02:13:34.275Z,10.35
2023-05-06T02:16:19.848Z,10.34
2023-05-06T02:19:05.691Z,10.33
2023-05-06T02:21:51.244Z,10.35
2023-05-06T02:24:36.339Z,10.35
2023-05-06T02:27:21.633Z,10.14
2023-05-06T02:30:07.695Z,10.09
2023-05-06T02:32:53.106Z,10.01
2023-05-06T02:35:39.793Z,10.00
2023-05-06T02:38:25.785Z,9.94
2023-05-06T02:41:12.016Z,9.68
2023-05-06T02:43:57.246Z,9.84
2023-05-06T02:46:42.619Z,9.76
2023-05-06T02:49:29.232Z,9.79
2023-05-06T02:52:15.253Z,9.81
2023-05-06T02:55:01.822Z,9.80
2023-05-06T02:57:47.285Z,9.86
2023-05-06T03:00:32.405Z,9.37
2023-05-06T03:03:17.995Z,9.68
2023-05-06T03:06:03.616Z,9.85
2023-05-06T03:08:48.903Z,9.34
2023-05-06T03:11:34.108Z,9.50
2023-05-06T03:14:22.640Z,9.72
2023-05-06T03:17:08.379Z,9.16
2023-05-06T03:19:55.726Z,9.68
2023-05-06T03:22:41.563Z,9.71
2023-05-06T03:25:26.896Z,9.61
2023-05-06T03:28:13.507Z,9.66
2023-05-06T03:31:00.196Z,9.63
2023-05-06T03:33:45.679Z,9.52
2023-05-06T03:36:32.061Z,9.51
2023-05-06T03:39:18.085Z,9.39
2023-05-06T03:42:05.918Z,9.61
2023-05-06T03:44:52.368Z,9.70
2023-05-06T03:47:37.725Z,9.22
2023-05-06T03:50:25.511Z,9.47
2023-05-06T03:53:12.433Z,9.60
2023-05-06T03:55:59.983Z,9.69
2023-05-06T03:58:45.078Z,9.50
2023-05-06T04:01:30.930Z,9.42
2023-05-06T04:04:16.222Z,9.29
2023-05-06T04:07:02.441Z,9.33
2023-05-06T04:09:47.976Z,9.42
2023-05-06T04:12:34.431Z,9.38
2023-05-06T04:15:19.958Z,9.54
2023-05-06T04:18:05.850Z,9.58
2023-05-06T04:20:51.505Z,9.31
2023-05-06T04:23:37.096Z,9.39
2023-05-06T04:26:22.850Z,9.41
2023-05-06T04:29:08.977Z,9.23
2023-05-06T04:32:00.559Z,9.47
2023-05-06T04:34:48.901Z,9.48
2023-05-06T04:37:35.006Z,9.15
2023-05-06T04:40:27.322Z,9.59
2023-05-06T04:43:12.999Z,9.53
2023-05-06T04:45:58.530Z,9.47
2023-05-06T04:48:47.571Z,9.61
2023-05-06T04:51:34.601Z,9.17
2023-05-06T04:54:20.852Z,9.67
2023-05-06T04:57:06.388Z,9.70
2023-05-06T04:59:53.128Z,9.53
2023-05-06T05:02:38.471Z,9.87
2023-05-06T05:05:25.801Z,9.80
2023-05-06T05:08:12.124Z,9.72
2023-05-06T05:10:57.767Z,9.57
2023-05-06T05:13:44.851Z,9.72
2023-05-06T05:16:30.341Z,9.88
2023-05-06T05:19:16.334Z,9.91
2023-05-06T05:22:02.444Z,10.01
2023-05-06T05:24:50.176Z,10.19
2023-05-06T05:27:35.808Z,10.59
2023-05-06T05:30:21.313Z,10.69
2023-05-06T05:33:08.187Z,10.69
2023-05-06T05:35:56.011Z,10.79
2023-05-06T05:38:42.038Z,10.92
2023-05-06T05:41:27.724Z,10.94
2023-05-06T05:44:13.581Z,11.09
2023-05-06T05:46:59.740Z,11.16
2023-05-06T05:49:46.736Z,11.02
2023-05-06T05:52:35.636Z,11.08
2023-05-06T05:55:22.030Z,11.24
2023-05-06T05:58:10.419Z,11.17
2023-05-06T06:00:56.669Z,11.76
2023-05-06T06:03:42.429Z,12.07
2023-05-06T06:06:28.109Z,12.39
2023-05-06T06:09:13.479Z,12.36
2023-05-06T06:11:59.451Z,12.35
2023-05-06T06:14:47.941Z,12.58
2023-05-06T06:17:38.984Z,12.49
2023-05-06T06:20:25.513Z,12.81
2023-05-06T06:23:11.967Z,12.88
2023-05-06T06:25:57.211Z,12.77
2023-05-06T06:28:42.721Z,12.58
2023-05-06T06:31:28.165Z,12.19
2023-05-06T06:34:13.255Z,12.16
2023-05-06T06:36:59.008Z,12.12
2023-05-06T06:39:44.487Z,12.23
2023-05-06T06:42:29.835Z,12.31
2023-05-06T06:45:26.366Z,12.70
2023-05-06T06:48:11.881Z,12.98
2023-05-06T06:50:56.927Z,13.20
2023-05-06T06:53:42.135Z,13.14
2023-05-06T06:56:27.209Z,13.36
2023-05-06T06:59:12.484Z,13.54
2023-05-06T07:01:57.814Z,13.60
2023-05-06T07:04:43.048Z,13.57
2023-05-06T07:07:28.521Z,13.47
2023-05-06T07:10:13.988Z,13.11
2023-05-06T07:12:59.282Z,12.92
2023-05-06T07:15:44.523Z,13.01
2023-05-06T07:18:29.601Z,13.06
2023-05-06T07:21:15.778Z,13.05
2023-05-06T07:24:00.940Z,12.81
2023-05-06T07:26:47.174Z,13.44
2023-05-06T07:29:32.936Z,12.97
2023-05-06T07:32:18.382Z,13.25
2023-05-06T07:35:04.079Z,13.77
2023-05-06T07:37:49.510Z,13.67
2023-05-06T07:40:34.651Z,13.55
2023-05-06T07:43:22.012Z,13.46
2023-05-06T07:46:07.397Z,13.62
2023-05-06T07:48:52.754Z,13.81
2023-05-06T07:51:38.195Z,13.84
2023-05-06T07:54:23.677Z,14.17
2023-05-06T07:57:09.353Z,14.29
2023-05-06T07:59:54.821Z,14.25
2023-05-06T08:02:40.115Z,14.28
2023-05-06T08:05:25.246Z,14.19
2023-05-06T08:08:10.690Z,14.27
2023-05-06T08:10:58.636Z,14.47
2023-05-06T08:13:44.299Z,14.56
2023-05-06T08:16:29.641Z,14.62
2023-05-06T08:19:15.081Z,14.58
2023-05-06T08:22:00.834Z,14.72
2023-05-06T08:24:46.097Z,14.62
2023-05-06T08:27:31.576Z,15.30
2023-05-06T08:30:17.023Z,15.32
2023-05-06T08:33:02.780Z,15.40
2023-05-06T08:35:47.942Z,15.61
2023-05-06T08:38:33.498Z,15.02
2023-05-06T08:41:20.752Z,15.72
2023-05-06T08:44:07.943Z,15.76
2023-05-06T08:46:53.631Z,15.18
2023-05-06T08:49:40.430Z,15.74
2023-05-06T08:52:26.430Z,15.97
2023-05-06T08:55:12.363Z,15.91
2023-05-06T08:57:58.424Z,16.06
2023-05-06T09:00:44.564Z,16.35
2023-05-06T09:03:29.784Z,16.51
2023-05-06T09:06:15.288Z,16.35
2023-05-06T09:09:00.372Z,16.81
2023-05-06T09:11:45.994Z,16.62
2023-05-06T09:14:31.583Z,16.81
2023-05-06T09:17:21.844Z,16.55
2023-05-06T09:20:11.551Z,16.24
2023-05-06T09:22:57.295Z,16.28
2023-05-06T09:25:44.415Z,16.07
2023-05-06T09:28:33.045Z,16.26
2023-05-06T09:31:18.452Z,16.52
2023-05-06T09:34:04.059Z,16.75
2023-05-06T09:36:49.183Z,16.72
2023-05-06T09:39:34.392Z,17.06
2023-05-06T09:42:21.665Z,17.33
2023-05-06T09:45:08.692Z,17.54
2023-05-06T09:47:54.401Z,17.63
2023-05-06T09:50:39.748Z,17.52
2023-05-06T09:53:25.496Z,17.50
2023-05-06T09:56:12.113Z,17.58
2023-05-06T09:58:58.355Z,17.78
2023-05-06T10:01:43.910Z,18.16
2023-05-06T10:04:30.978Z,17.94
2023-05-06T10:07:20.522Z,18.11
2023-05-06T10:10:09.002Z,18.21
2023-05-06T10:12:55.443Z,18.73
2023-05-06T10:15:42.333Z,18.92
2023-05-06T10:18:31.870Z,18.76
2023-05-06T10:21:24.151Z,18.73
2023-05-06T10:24:13.358Z,18.45
2023-05-06T10:27:02.001Z,18.36
2023-05-06T10:29:49.099Z,18.18
2023-05-06T10:32:35.034Z,18.27
2023-05-06T10:35:42.199Z,18.76
2023-05-06T10:38:34.341Z,19.00
2023-05-06T10:41:20.284Z,18.76
2023-05-06T10:44:05.818Z,18.56
2023-05-06T10:46:59.723Z,17.97
2023-05-06T10:50:24.194Z,17.77
2023-05-06T10:53:09.730Z,18.14
2023-05-06T10:56:07.434Z,17.76
2023-05-06T10:58:54.739Z,17.48
2023-05-06T11:01:42.114Z,18.25
2023-05-06T11:04:28.317Z,18.61
2023-05-06T11:07:15.628Z,18.88
2023-05-06T11:10:03.882Z,19.00
2023-05-06T11:12:52.320Z,19.14
2023-05-06T11:15:40.708Z,19.44
2023-05-06T11:18:25.736Z,19.70
2023-05-06T11:21:12.227Z,19.64
2023-05-06T11:23:57.494Z,19.72
2023-05-06T11:26:43.372Z,19.80
2023-05-06T11:29:28.790Z,19.06
2023-05-06T11:32:23.163Z,18.58
2023-05-06T11:35:08.691Z,18.09
2023-05-06T11:37:54.443Z,18.19
2023-05-06T11:40:42.065Z,18.41
2023-05-06T11:43:27.330Z,17.78
2023-05-06T11:46:12.374Z,17.58
2023-05-06T11:48:57.539Z,17.84
2023-05-06T11:51:42.823Z,17.84
2023-05-06T11:54:28.228Z,18.36
2023-05-06T11:57:14.111Z,18.95
2023-05-06T11:59:59.497Z,19.31
2023-05-06T12:02:44.690Z,19.47
2023-05-06T12:05:30.582Z,19.29
2023-05-06T12:08:27.977Z,19.19
2023-05-06T12:11:14.032Z,19.36
2023-05-06T12:13:59.902Z,19.14
2023-05-06T12:16:45.427Z,19.20
2023-05-06T12:19:31.944Z,19.21
2023-05-06T12:22:26.285Z,19.29
2023-05-06T12:25:15.474Z,19.36
2023-05-06T12:28:01.119Z,19.40
2023-05-06T12:30:46.861Z,19.74
2023-05-06T12:33:44.660Z,20.14
2023-05-06T12:36:30.816Z,20.33
2023-05-06T12:39:16.111Z,20.03
2023-05-06T12:42:01.429Z,19.43
2023-05-06T12:44:46.673Z,19.58
2023-05-06T12:47:32.045Z,19.54
2023-05-06T12:50:37.635Z,19.42
2023-05-06T12:53:34.285Z,19.91
2023-05-06T12:56:20.852Z,19.98
2023-05-06T12:59:06.206Z,19.73
2023-05-06T13:01:51.493Z,19.13
2023-05-06T13:04:36.645Z,18.81
2023-05-06T13:07:22.196Z,18.95
2023-05-06T13:10:08.014Z,18.41
2023-05-06T13:12:53.564Z,18.40
2023-05-06T13:15:38.943Z,18.70
2023-05-06T13:18:24.505Z,18.98
2023-05-06T13:21:09.941Z,19.51
2023-05-06T13:23:55.387Z,19.40
2023-05-06T13:26:40.618Z,20.07
2023-05-06T13:29:25.914Z,20.23
2023-05-06T13:32:10.970Z,20.78
2023-05-06T13:34:56.568Z,20.65
2023-05-06T13:37:41.652Z,20.30
2023-05-06T13:40:26.902Z,20.51
2023-05-06T13:43:12.324Z,20.27
2023-05-06T13:45:57.735Z,19.91
2023-05-06T13:48:42.974Z,19.53
2023-05-06T13:51:28.169Z,18.79
2023-05-06T13:54:13.472Z,18.81
2023-05-06T13:56:58.582Z,18.70
2023-05-06T13:59:44.178Z,18.88
2023-05-06T14:02:30.305Z,18.92
2023-05-06T14:08:01.853Z,18.15
2023-05-06T14:10:47.135Z,18.30
2023-05-06T14:13:33.812Z,18.64
2023-05-06T14:16:19.291Z,18.78
2023-05-06T14:19:04.574Z,18.60
2023-05-06T14:21:50.004Z,18.25
2023-05-06T14:24:35.274Z,18.46
2023-05-06T14:27:20.874Z,18.31
2023-05-06T14:30:09.440Z,18.12
2023-05-06T14:32:55.351Z,17.80
2023-05-06T14:35:42.295Z,17.61
2023-05-06T14:38:27.464Z,17.48
2023-05-06T14:41:12.957Z,17.64
2023-05-06T14:43:58.449Z,17.66
2023-05-06T14:46:44.179Z,17.64
2023-05-06T14:49:29.908Z,17.53
2023-05-06T14:52:15.334Z,17.55
2023-05-06T14:55:00.380Z,17.55
2023-05-06T14:57:47.034Z,17.74
2023-05-06T15:00:32.600Z,18.11
2023-05-06T15:03:17.719Z,18.25
2023-05-06T15:06:03.105Z,18.52
2023-05-06T15:08:48.577Z,18.64
2023-05-06T15:11:34.099Z,18.36
2023-05-06T15:14:19.609Z,18.43
2023-05-06T15:17:05.375Z,18.40
2023-05-06T15:19:50.762Z,18.31
2023-05-06T15:22:38.684Z,18.32
2023-05-06T15:25:34.950Z,18.42
2023-05-06T15:28:24.230Z,18.37
2023-05-06T15:31:09.859Z,18.23
2023-05-06T15:33:55.214Z,18.35
2023-05-06T15:36:40.729Z,18.25
2023-05-06T15:39:26.032Z,18.23
2023-05-06T15:42:11.488Z,16.46
2023-05-06T15:44:57.678Z,17.83
2023-05-06T15:47:42.906Z,17.68
2023-05-06T15:50:33.415Z,17.77
2023-05-06T15:53:19.882Z,17.89
2023-05-06T15:58:52.896Z,17.83
2023-05-06T16:04:27.863Z,17.88
2023-05-06T16:07:13.376Z,17.81
2023-05-06T16:09:58.729Z,17.71
2023-05-06T16:12:43.938Z,17.76
2023-05-06T16:15:28.948Z,17.70
2023-05-06T16:18:14.779Z,18.04
2023-05-06T16:21:00.001Z,18.24
2023-05-06T16:23:45.450Z,17.83
2023-05-06T16:26:30.767Z,17.55
2023-05-06T16:29:16.232Z,17.16
2023-05-06T16:32:01.563Z,16.56
2023-05-06T16:34:47.290Z,16.74
2023-05-06T16:37:32.890Z,16.41
2023-05-06T16:40:20.026Z,16.50
2023-05-06T16:43:05.187Z,16.43
2023-05-06T16:45:50.637Z,16.36
2023-05-06T16:48:36.110Z,15.80
2023-05-06T16:51:21.509Z,16.32
2023-05-06T16:54:08.212Z,16.43
2023-05-06T16:56:53.362Z,15.96
2023-05-06T16:59:38.840Z,15.87
2023-05-06T17:02:24.010Z,15.49
2023-05-06T17:05:09.619Z,15.86
2023-05-06T17:07:55.180Z,15.79
2023-05-06T17:10:41.209Z,15.81
2023-05-06T17:13:26.442Z,15.53
2023-05-06T17:16:14.990Z,15.37
2023-05-06T17:19:00.021Z,15.52
2023-05-06T17:21:45.712Z,15.64
2023-05-06T17:24:30.892Z,15.44
2023-05-06T17:27:17.499Z,15.48
2023-05-06T17:30:03.125Z,15.23
2023-05-06T17:32:48.576Z,15.31
2023-05-06T17:35:34.032Z,15.31
2023-05-06T17:38:19.603Z,15.04
2023-05-06T17:41:05.415Z,15.12
2023-05-06T17:43:50.630Z,15.22
2023-05-06T17:46:35.917Z,14.90
2023-05-06T17:49:21.413Z,14.82
2023-05-06T17:52:06.547Z,14.86
2023-05-06T17:55:01.066Z,14.78
2023-05-06T17:57:51.139Z,14.80
2023-05-06T18:00:36.423Z,14.80
2023-05-06T18:03:22.722Z,14.84
2023-05-06T18:06:08.441Z,14.79
2023-05-06T18:08:53.800Z,14.73
2023-05-06T18:11:39.695Z,14.16
2023-05-06T18:14:25.256Z,14.34
2023-05-06T18:17:11.044Z,14.28
2023-05-06T18:19:56.120Z,14.29
2023-05-06T18:22:41.735Z,14.06
2023-05-06T18:25:26.967Z,14.13
2023-05-06T18:28:12.521Z,14.04
2023-05-06T18:30:58.006Z,14.28
2023-05-06T18:33:43.444Z,14.36
2023-05-06T18:36:28.679Z,14.61
2023-05-06T18:39:14.096Z,14.56
2023-05-06T18:41:59.276Z,14.38
2023-05-06T18:44:44.463Z,14.19
2023-05-06T18:47:29.705Z,13.78
2023-05-06T18:50:15.172Z,13.55
2023-05-06T18:53:00.315Z,13.22
2023-05-06T18:55:45.698Z,12.72
2023-05-06T18:58:31.215Z,12.61
2023-05-06T19:01:16.993Z,12.21
2023-05-06T19:04:02.467Z,12.24
2023-05-06T19:06:48.402Z,11.96
2023-05-06T19:09:33.486Z,11.64
2023-05-06T19:12:19.019Z,11.83
2023-05-06T19:15:05.143Z,11.62
2023-05-06T19:17:50.472Z,11.69
2023-05-06T19:20:35.820Z,11.48
2023-05-06T19:23:21.215Z,11.61
2023-05-06T19:26:07.091Z,11.46
2023-05-06T19:28:52.694Z,11.32
2023-05-06T19:31:38.179Z,11.23
2023-05-06T19:34:24.550Z,11.28
2023-05-06T19:37:10.021Z,10.25
2023-05-06T19:39:55.392Z,11.19
2023-05-06T19:42:40.573Z,11.27
2023-05-06T19:45:25.705Z,11.27
2023-05-06T19:48:11.061Z,11.21
2023-05-06T19:50:56.440Z,11.32
2023-05-06T19:53:41.819Z,11.23
2023-05-06T19:56:27.181Z,11.22
2023-05-06T19:59:12.282Z,10.88
2023-05-06T20:01:57.454Z,10.49
2023-05-06T20:04:45.922Z,10.87
2023-05-06T20:07:32.179Z,10.85
2023-05-06T20:10:17.671Z,11.01
2023-05-06T20:13:03.648Z,10.92
2023-05-06T20:15:48.960Z,11.01
2023-05-06T20:18:34.055Z,10.77
2023-05-06T20:21:19.479Z,10.63
2023-05-06T20:24:05.174Z,10.45
2023-05-06T20:26:50.839Z,10.58
2023-05-06T20:29:36.224Z,10.53
2023-05-06T20:32:21.455Z,10.48
2023-05-06T20:35:07.494Z,10.28
2023-05-06T20:37:52.787Z,10.50
2023-05-06T20:40:38.302Z,10.56
2023-05-06T20:43:23.482Z,10.26
2023-05-06T20:46:08.794Z,9.86
2023-05-06T20:48:53.875Z,10.07
2023-05-06T20:51:39.145Z,10.12
2023-05-06T20:54:24.342Z,10.02
2023-05-06T20:57:10.733Z,9.95
2023-05-06T20:59:56.345Z,9.72
2023-05-06T21:02:42.261Z,9.33
2023-05-06T21:05:27.963Z,9.51
2023-05-06T21:08:13.154Z,9.63
2023-05-06T21:10:58.690Z,9.47
2023-05-06T21:13:44.179Z,9.54
2023-05-06T21:16:29.706Z,9.19
2023-05-06T21:19:15.207Z,9.56
2023-05-06T21:22:00.785Z,9.70
2023-05-06T21:24:46.098Z,9.60
2023-05-06T21:27:31.755Z,9.51
2023-05-06T21:30:17.146Z,9.36
2023-05-06T21:33:03.654Z,9.31
2023-05-06T21:35:48.883Z,9.27
2023-05-06T21:38:34.051Z,9.37
2023-05-06T21:41:19.551Z,9.38
2023-05-06T21:44:05.668Z,9.44
2023-05-06T21:46:51.401Z,9.37
2023-05-06T21:49:36.851Z,9.28
2023-05-06T21:52:22.463Z,9.38
2023-05-06T21:55:08.461Z,9.53
2023-05-06T21:57:53.794Z,9.34
2023-05-06T22:00:39.071Z,8.98
2023-05-06T22:03:24.249Z,8.90
2023-05-06T22:06:09.476Z,8.90
2023-05-06T22:08:54.734Z,8.97
2023-05-06T22:11:40.260Z,8.86
2023-05-06T22:14:30.256Z,8.73
2023-05-06T22:17:23.089Z,8.79
2023-05-06T22:20:09.255Z,8.88
2023-05-06T22:22:54.851Z,8.77
2023-05-06T22:25:40.086Z,8.68
2023-05-06T22:28:25.338Z,8.47
2023-05-06T22:31:10.898Z,8.44
2023-05-06T22:33:56.433Z,8.44
2023-05-06T22:36:42.001Z,8.47
2023-05-06T22:39:27.138Z,8.41
2023-05-06T22:42:12.515Z,8.13
2023-05-06T22:44:57.810Z,8.50
2023-05-06T22:47:43.235Z,8.60
2023-05-06T22:50:28.372Z,8.55
2023-05-06T22:53:15.658Z,8.49
2023-05-06T22:56:01.150Z,8.67
2023-05-06T22:58:46.733Z,8.67
2023-05-06T23:01:32.547Z,8.76
2023-05-06T23:04:17.922Z,8.58
2023-05-06T23:07:03.196Z,8.62
2023-05-06T23:09:48.312Z,8.77
2023-05-06T23:12:34.324Z,8.53
2023-05-06T23:15:19.943Z,8.69
2023-05-06T23:18:05.654Z,8.61
2023-05-06T23:20:51.122Z,8.58
2023-05-06T23:23:36.464Z,8.49
2023-05-06T23:26:21.917Z,8.03
2023-05-06T23:29:07.344Z,8.39
2023-05-06T23:31:52.445Z,8.27
2023-05-06T23:34:37.912Z,8.27
2023-05-06T23:37:23.132Z,8.28
2023-05-06T23:40:08.818Z,8.07
2023-05-06T23:42:54.230Z,8.19
2023-05-06T23:45:39.349Z,8.02
2023-05-06T23:48:24.625Z,7.92
2023-05-06T23:51:10.077Z,7.82
2023-05-06T23:53:55.341Z,7.62
2023-05-06T23:56:40.592Z,7.44
2023-05-06T23:59:26.175Z,7.43
